sensor_id;sensor_type;location;lat;lon;timestamp;temperature;humidity
5429;DHT22;2737;52.386;9.980;2023-06-24T00:02:19;15.30;99.90
5429;DHT22;2737;52.386;9.980;2023-06-24T00:04:49;15.30;99.90
5429;DHT22;2737;52.386;9.980;2023-06-24T00:07:17;15.20;99.90
5429;DHT22;2737;52.386;9.980;2023-06-24T00:09:47;15.20;99.90
5429;DHT22;2737;52.386;9.980;2023-06-24T00:12:14;15.20;99.90
5429;DHT22;2737;52.386;9.980;2023-06-24T00:14:46;15.20;99.90
5429;DHT22;2737;52.386;9.980;2023-06-24T00:17:13;15.20;99.90
5429;DHT22;2737;52.386;9.980;2023-06-24T00:19:42;15.10;99.90
5429;DHT22;2737;52.386;9.980;2023-06-24T00:22:10;15.10;99.90
5429;DHT22;2737;52.386;9.980;2023-06-24T00:24:37;15.10;99.90
5429;DHT22;2737;52.386;9.980;2023-06-24T00:27:05;15.10;99.90
5429;DHT22;2737;52.386;9.980;2023-06-24T00:29:32;15.00;99.90
5429;DHT22;2737;52.386;9.980;2023-06-24T00:32:01;15.00;99.90
5429;DHT22;2737;52.386;9.980;2023-06-24T00:34:28;15.00;99.90
5429;DHT22;2737;52.386;9.980;2023-06-24T00:36:55;15.00;99.90
5429;DHT22;2737;52.386;9.980;2023-06-24T00:39:22;15.00;99.90
5429;DHT22;2737;52.386;9.980;2023-06-24T00:41:49;14.90;99.90
5429;DHT22;2737;52.386;9.980;2023-06-24T00:44:16;14.90;99.90
5429;DHT22;2737;52.386;9.980;2023-06-24T00:46:44;14.80;99.90
5429;DHT22;2737;52.386;9.980;2023-06-24T00:49:13;14.70;99.90
5429;DHT22;2737;52.386;9.980;2023-06-24T00:51:41;14.80;99.90
5429;DHT22;2737;52.386;9.980;2023-06-24T00:54:16;14.80;99.90
5429;DHT22;2737;52.386;9.980;2023-06-24T00:56:43;14.70;99.90
5429;DHT22;2737;52.386;9.980;2023-06-24T00:59:13;14.70;99.90
5429;DHT22;2737;52.386;9.980;2023-06-24T01:01:40;14.60;99.90
5429;DHT22;2737;52.386;9.980;2023-06-24T01:04:07;14.50;99.90
5429;DHT22;2737;52.386;9.980;2023-06-24T01:06:36;14.50;99.90
5429;DHT22;2737;52.386;9.980;2023-06-24T01:09:09;14.50;99.90
5429;DHT22;2737;52.386;9.980;2023-06-24T01:11:36;14.50;99.90
5429;DHT22;2737;52.386;9.980;2023-06-24T01:14:04;14.30;99.90
5429;DHT22;2737;52.386;9.980;2023-06-24T01:16:37;14.40;99.90
5429;DHT22;2737;52.386;9.980;2023-06-24T01:19:19;14.30;99.90
5429;DHT22;2737;52.386;9.980;2023-06-24T01:22:01;14.30;99.90
5429;DHT22;2737;52.386;9.980;2023-06-24T01:24:51;14.20;99.90
5429;DHT22;2737;52.386;9.980;2023-06-24T01:27:43;14.10;99.90
5429;DHT22;2737;52.386;9.980;2023-06-24T01:30:39;14.00;99.90
5429;DHT22;2737;52.386;9.980;2023-06-24T01:33:16;14.10;99.90
5429;DHT22;2737;52.386;9.980;2023-06-24T01:35:48;14.10;99.90
5429;DHT22;2737;52.386;9.980;2023-06-24T01:38:19;14.10;99.90
5429;DHT22;2737;52.386;9.980;2023-06-24T01:40:48;14.10;99.90
5429;DHT22;2737;52.386;9.980;2023-06-24T01:43:17;14.20;99.90
5429;DHT22;2737;52.386;9.980;2023-06-24T01:45:50;14.10;99.90
5429;DHT22;2737;52.386;9.980;2023-06-24T01:48:22;14.00;99.90
5429;DHT22;2737;52.386;9.980;2023-06-24T01:50:57;14.00;99.90
5429;DHT22;2737;52.386;9.980;2023-06-24T01:53:24;14.00;99.90
5429;DHT22;2737;52.386;9.980;2023-06-24T01:55:54;13.90;99.90
5429;DHT22;2737;52.386;9.980;2023-06-24T01:58:22;13.90;99.90
5429;DHT22;2737;52.386;9.980;2023-06-24T02:00:50;13.90;99.90
5429;DHT22;2737;52.386;9.980;2023-06-24T02:03:21;13.80;99.90
5429;DHT22;2737;52.386;9.980;2023-06-24T02:05:50;13.80;99.90
5429;DHT22;2737;52.386;9.980;2023-06-24T02:08:19;13.70;99.90
5429;DHT22;2737;52.386;9.980;2023-06-24T02:10:48;13.80;99.90
5429;DHT22;2737;52.386;9.980;2023-06-24T02:13:17;13.70;99.90
5429;DHT22;2737;52.386;9.980;2023-06-24T02:15:46;13.70;99.90
5429;DHT22;2737;52.386;9.980;2023-06-24T02:18:15;13.70;99.90
5429;DHT22;2737;52.386;9.980;2023-06-24T02:20:45;13.60;99.90
5429;DHT22;2737;52.386;9.980;2023-06-24T02:23:13;13.60;99.90
5429;DHT22;2737;52.386;9.980;2023-06-24T02:25:42;13.60;99.90
5429;DHT22;2737;52.386;9.980;2023-06-24T02:28:09;13.60;99.90
5429;DHT22;2737;52.386;9.980;2023-06-24T02:30:38;13.60;99.90
5429;DHT22;2737;52.386;9.980;2023-06-24T02:33:05;13.60;99.90
5429;DHT22;2737;52.386;9.980;2023-06-24T02:35:32;13.60;99.90
5429;DHT22;2737;52.386;9.980;2023-06-24T02:38:01;13.60;99.90
5429;DHT22;2737;52.386;9.980;2023-06-24T02:40:29;13.60;99.90
5429;DHT22;2737;52.386;9.980;2023-06-24T02:42:57;13.50;99.90
5429;DHT22;2737;52.386;9.980;2023-06-24T02:45:24;13.40;99.90
5429;DHT22;2737;52.386;9.980;2023-06-24T02:47:52;13.40;99.90
5429;DHT22;2737;52.386;9.980;2023-06-24T02:50:21;13.30;99.90
5429;DHT22;2737;52.386;9.980;2023-06-24T02:52:50;13.40;99.90
5429;DHT22;2737;52.386;9.980;2023-06-24T02:55:19;13.30;99.90
5429;DHT22;2737;52.386;9.980;2023-06-24T02:57:48;13.10;99.90
5429;DHT22;2737;52.386;9.980;2023-06-24T03:00:17;13.20;99.90
5429;DHT22;2737;52.386;9.980;2023-06-24T03:02:45;13.20;99.90
5429;DHT22;2737;52.386;9.980;2023-06-24T03:05:14;13.10;99.90
5429;DHT22;2737;52.386;9.980;2023-06-24T03:07:41;13.10;99.90
5429;DHT22;2737;52.386;9.980;2023-06-24T03:10:09;13.10;99.90
5429;DHT22;2737;52.386;9.980;2023-06-24T03:12:37;13.00;99.90
5429;DHT22;2737;52.386;9.980;2023-06-24T03:15:05;13.00;99.90
5429;DHT22;2737;52.386;9.980;2023-06-24T03:17:32;13.00;99.90
5429;DHT22;2737;52.386;9.980;2023-06-24T03:20:03;12.90;99.90
5429;DHT22;2737;52.386;9.980;2023-06-24T03:22:31;12.90;99.90
5429;DHT22;2737;52.386;9.980;2023-06-24T03:24:58;13.00;99.90
5429;DHT22;2737;52.386;9.980;2023-06-24T03:27:25;13.00;99.90
5429;DHT22;2737;52.386;9.980;2023-06-24T03:29:54;12.90;99.90
5429;DHT22;2737;52.386;9.980;2023-06-24T03:32:21;12.90;99.90
5429;DHT22;2737;52.386;9.980;2023-06-24T03:34:48;12.90;99.90
5429;DHT22;2737;52.386;9.980;2023-06-24T03:37:15;12.80;99.90
5429;DHT22;2737;52.386;9.980;2023-06-24T03:39:43;12.80;99.90
5429;DHT22;2737;52.386;9.980;2023-06-24T03:42:09;12.90;99.90
5429;DHT22;2737;52.386;9.980;2023-06-24T03:44:36;12.90;99.90
5429;DHT22;2737;52.386;9.980;2023-06-24T03:47:05;12.90;99.90
5429;DHT22;2737;52.386;9.980;2023-06-24T03:49:32;12.90;99.90
5429;DHT22;2737;52.386;9.980;2023-06-24T03:51:59;12.90;99.90
5429;DHT22;2737;52.386;9.980;2023-06-24T03:54:26;12.90;99.90
5429;DHT22;2737;52.386;9.980;2023-06-24T03:56:53;12.90;99.90
5429;DHT22;2737;52.386;9.980;2023-06-24T03:59:20;12.90;99.90
5429;DHT22;2737;52.386;9.980;2023-06-24T04:01:47;12.90;99.90
5429;DHT22;2737;52.386;9.980;2023-06-24T04:04:18;12.90;99.90
5429;DHT22;2737;52.386;9.980;2023-06-24T04:06:45;13.00;99.90
5429;DHT22;2737;52.386;9.980;2023-06-24T04:09:12;13.00;99.90
5429;DHT22;2737;52.386;9.980;2023-06-24T04:11:39;13.00;99.90
5429;DHT22;2737;52.386;9.980;2023-06-24T04:14:06;13.00;99.90
5429;DHT22;2737;52.386;9.980;2023-06-24T04:16:34;13.10;99.90
5429;DHT22;2737;52.386;9.980;2023-06-24T04:19:02;13.10;99.90
5429;DHT22;2737;52.386;9.980;2023-06-24T04:21:30;13.20;99.90
5429;DHT22;2737;52.386;9.980;2023-06-24T04:23:57;13.20;99.90
5429;DHT22;2737;52.386;9.980;2023-06-24T04:26:24;13.30;99.90
5429;DHT22;2737;52.386;9.980;2023-06-24T04:28:51;13.30;99.90
5429;DHT22;2737;52.386;9.980;2023-06-24T04:31:18;13.30;99.90
5429;DHT22;2737;52.386;9.980;2023-06-24T04:33:45;13.40;99.90
5429;DHT22;2737;52.386;9.980;2023-06-24T04:36:12;13.50;99.90
5429;DHT22;2737;52.386;9.980;2023-06-24T04:38:41;13.50;99.90
5429;DHT22;2737;52.386;9.980;2023-06-24T04:41:08;13.60;99.90
5429;DHT22;2737;52.386;9.980;2023-06-24T04:43:35;13.70;99.90
5429;DHT22;2737;52.386;9.980;2023-06-24T04:46:02;13.70;99.90
5429;DHT22;2737;52.386;9.980;2023-06-24T04:48:29;13.80;99.90
5429;DHT22;2737;52.386;9.980;2023-06-24T04:50:56;13.90;99.90
5429;DHT22;2737;52.386;9.980;2023-06-24T04:53:24;14.00;99.90
5429;DHT22;2737;52.386;9.980;2023-06-24T04:55:52;14.00;99.90
5429;DHT22;2737;52.386;9.980;2023-06-24T04:58:19;14.10;99.90
5429;DHT22;2737;52.386;9.980;2023-06-24T05:00:46;14.20;99.90
5429;DHT22;2737;52.386;9.980;2023-06-24T05:03:13;14.30;99.90
5429;DHT22;2737;52.386;9.980;2023-06-24T05:05:40;14.40;99.90
5429;DHT22;2737;52.386;9.980;2023-06-24T05:08:07;14.50;99.90
5429;DHT22;2737;52.386;9.980;2023-06-24T05:10:34;14.50;99.90
5429;DHT22;2737;52.386;9.980;2023-06-24T05:13:02;14.60;99.90
5429;DHT22;2737;52.386;9.980;2023-06-24T05:15:29;14.70;99.90
5429;DHT22;2737;52.386;9.980;2023-06-24T05:17:56;14.80;99.90
5429;DHT22;2737;52.386;9.980;2023-06-24T05:20:23;14.90;99.90
5429;DHT22;2737;52.386;9.980;2023-06-24T05:22:50;14.90;99.90
5429;DHT22;2737;52.386;9.980;2023-06-24T05:25:18;15.00;99.90
5429;DHT22;2737;52.386;9.980;2023-06-24T05:27:45;15.10;99.90
5429;DHT22;2737;52.386;9.980;2023-06-24T05:30:13;15.20;99.90
5429;DHT22;2737;52.386;9.980;2023-06-24T05:32:40;15.30;99.90
5429;DHT22;2737;52.386;9.980;2023-06-24T05:35:08;15.30;99.90
5429;DHT22;2737;52.386;9.980;2023-06-24T05:37:35;15.40;99.90
5429;DHT22;2737;52.386;9.980;2023-06-24T05:40:02;15.50;99.90
5429;DHT22;2737;52.386;9.980;2023-06-24T05:42:30;15.60;99.90
5429;DHT22;2737;52.386;9.980;2023-06-24T05:44:57;15.70;99.90
5429;DHT22;2737;52.386;9.980;2023-06-24T05:47:26;15.80;99.90
5429;DHT22;2737;52.386;9.980;2023-06-24T05:49:53;15.90;99.90
5429;DHT22;2737;52.386;9.980;2023-06-24T05:52:20;16.00;99.90
5429;DHT22;2737;52.386;9.980;2023-06-24T05:54:47;16.10;99.90
5429;DHT22;2737;52.386;9.980;2023-06-24T05:57:14;16.20;99.90
5429;DHT22;2737;52.386;9.980;2023-06-24T05:59:41;16.30;99.90
5429;DHT22;2737;52.386;9.980;2023-06-24T06:02:08;16.30;99.90
5429;DHT22;2737;52.386;9.980;2023-06-24T06:04:37;16.40;99.90
5429;DHT22;2737;52.386;9.980;2023-06-24T06:07:05;16.50;99.90
5429;DHT22;2737;52.386;9.980;2023-06-24T06:09:32;16.60;99.90
5429;DHT22;2737;52.386;9.980;2023-06-24T06:11:59;16.60;99.90
5429;DHT22;2737;52.386;9.980;2023-06-24T06:14:26;16.70;99.90
5429;DHT22;2737;52.386;9.980;2023-06-24T06:16:53;16.90;99.90
5429;DHT22;2737;52.386;9.980;2023-06-24T06:19:20;17.00;99.90
5429;DHT22;2737;52.386;9.980;2023-06-24T06:21:49;17.10;99.90
5429;DHT22;2737;52.386;9.980;2023-06-24T06:24:16;17.20;99.90
5429;DHT22;2737;52.386;9.980;2023-06-24T06:26:44;17.30;99.90
5429;DHT22;2737;52.386;9.980;2023-06-24T06:29:11;17.40;99.90
5429;DHT22;2737;52.386;9.980;2023-06-24T06:31:40;17.50;99.90
5429;DHT22;2737;52.386;9.980;2023-06-24T06:34:09;17.60;99.90
5429;DHT22;2737;52.386;9.980;2023-06-24T06:36:36;17.90;99.90
5429;DHT22;2737;52.386;9.980;2023-06-24T06:39:04;18.30;99.90
5429;DHT22;2737;52.386;9.980;2023-06-24T06:41:31;18.30;99.90
5429;DHT22;2737;52.386;9.980;2023-06-24T06:43:58;18.40;99.90
5429;DHT22;2737;52.386;9.980;2023-06-24T06:46:25;18.60;99.90
5429;DHT22;2737;52.386;9.980;2023-06-24T06:48:52;18.60;99.90
5429;DHT22;2737;52.386;9.980;2023-06-24T06:51:19;18.60;99.90
5429;DHT22;2737;52.386;9.980;2023-06-24T06:53:46;18.80;99.90
5429;DHT22;2737;52.386;9.980;2023-06-24T06:56:18;18.90;99.90
5429;DHT22;2737;52.386;9.980;2023-06-24T06:58:45;18.90;99.90
5429;DHT22;2737;52.386;9.980;2023-06-24T07:01:12;19.00;99.90
5429;DHT22;2737;52.386;9.980;2023-06-24T07:03:39;19.10;99.90
5429;DHT22;2737;52.386;9.980;2023-06-24T07:06:06;19.20;99.90
5429;DHT22;2737;52.386;9.980;2023-06-24T07:08:34;19.20;99.90
5429;DHT22;2737;52.386;9.980;2023-06-24T07:11:01;19.30;99.90
5429;DHT22;2737;52.386;9.980;2023-06-24T07:13:29;19.30;99.90
5429;DHT22;2737;52.386;9.980;2023-06-24T07:15:56;19.40;99.90
5429;DHT22;2737;52.386;9.980;2023-06-24T07:18:24;19.50;99.90
5429;DHT22;2737;52.386;9.980;2023-06-24T07:20:55;19.70;99.90
5429;DHT22;2737;52.386;9.980;2023-06-24T07:23:22;19.80;99.90
5429;DHT22;2737;52.386;9.980;2023-06-24T07:25:49;20.00;99.90
5429;DHT22;2737;52.386;9.980;2023-06-24T07:28:17;20.10;99.90
5429;DHT22;2737;52.386;9.980;2023-06-24T07:30:45;20.30;99.90
5429;DHT22;2737;52.386;9.980;2023-06-24T07:33:12;20.60;99.90
5429;DHT22;2737;52.386;9.980;2023-06-24T07:35:39;20.50;99.90
5429;DHT22;2737;52.386;9.980;2023-06-24T07:38:06;20.80;99.90
5429;DHT22;2737;52.386;9.980;2023-06-24T07:40:33;20.80;99.90
5429;DHT22;2737;52.386;9.980;2023-06-24T07:43:00;21.00;99.90
5429;DHT22;2737;52.386;9.980;2023-06-24T07:45:27;21.00;99.90
5429;DHT22;2737;52.386;9.980;2023-06-24T07:47:55;21.10;99.90
5429;DHT22;2737;52.386;9.980;2023-06-24T07:50:22;21.10;99.90
5429;DHT22;2737;52.386;9.980;2023-06-24T07:52:49;21.30;99.90
5429;DHT22;2737;52.386;9.980;2023-06-24T07:55:16;21.60;99.90
5429;DHT22;2737;52.386;9.980;2023-06-24T07:57:45;21.90;99.90
5429;DHT22;2737;52.386;9.980;2023-06-24T08:00:13;22.00;99.90
5429;DHT22;2737;52.386;9.980;2023-06-24T08:02:40;22.20;99.90
5429;DHT22;2737;52.386;9.980;2023-06-24T08:05:09;22.80;99.90
5429;DHT22;2737;52.386;9.980;2023-06-24T08:07:37;23.00;99.90
5429;DHT22;2737;52.386;9.980;2023-06-24T08:10:04;22.80;99.90
5429;DHT22;2737;52.386;9.980;2023-06-24T08:12:32;22.60;99.90
5429;DHT22;2737;52.386;9.980;2023-06-24T08:14:59;22.50;99.90
5429;DHT22;2737;52.386;9.980;2023-06-24T08:17:26;22.20;99.90
5429;DHT22;2737;52.386;9.980;2023-06-24T08:19:53;22.10;99.90
5429;DHT22;2737;52.386;9.980;2023-06-24T08:22:21;22.20;99.90
5429;DHT22;2737;52.386;9.980;2023-06-24T08:24:48;22.40;99.90
5429;DHT22;2737;52.386;9.980;2023-06-24T08:27:15;22.50;99.90
5429;DHT22;2737;52.386;9.980;2023-06-24T08:29:42;22.70;99.90
5429;DHT22;2737;52.386;9.980;2023-06-24T08:32:09;22.50;99.90
5429;DHT22;2737;52.386;9.980;2023-06-24T08:34:36;22.60;99.90
5429;DHT22;2737;52.386;9.980;2023-06-24T08:37:03;22.60;99.90
5429;DHT22;2737;52.386;9.980;2023-06-24T08:39:32;23.00;99.90
5429;DHT22;2737;52.386;9.980;2023-06-24T08:41:59;22.80;99.90
5429;DHT22;2737;52.386;9.980;2023-06-24T08:44:26;23.00;99.90
5429;DHT22;2737;52.386;9.980;2023-06-24T08:46:53;23.10;99.90
5429;DHT22;2737;52.386;9.980;2023-06-24T08:49:27;23.40;99.90
5429;DHT22;2737;52.386;9.980;2023-06-24T08:52:00;23.40;99.90
5429;DHT22;2737;52.386;9.980;2023-06-24T08:54:33;23.30;99.90
5429;DHT22;2737;52.386;9.980;2023-06-24T08:57:01;23.30;99.90
5429;DHT22;2737;52.386;9.980;2023-06-24T08:59:30;23.60;99.90
5429;DHT22;2737;52.386;9.980;2023-06-24T09:01:57;23.60;99.90
5429;DHT22;2737;52.386;9.980;2023-06-24T09:04:24;23.70;99.90
5429;DHT22;2737;52.386;9.980;2023-06-24T09:06:51;24.00;99.90
5429;DHT22;2737;52.386;9.980;2023-06-24T09:09:19;23.90;99.90
5429;DHT22;2737;52.386;9.980;2023-06-24T09:11:55;23.80;99.90
5429;DHT22;2737;52.386;9.980;2023-06-24T09:14:24;23.80;99.90
5429;DHT22;2737;52.386;9.980;2023-06-24T09:16:53;23.90;99.90
5429;DHT22;2737;52.386;9.980;2023-06-24T09:19:21;23.80;99.90
5429;DHT22;2737;52.386;9.980;2023-06-24T09:21:49;24.10;99.90
5429;DHT22;2737;52.386;9.980;2023-06-24T09:24:17;24.30;99.90
5429;DHT22;2737;52.386;9.980;2023-06-24T09:26:44;24.20;99.90
5429;DHT22;2737;52.386;9.980;2023-06-24T09:29:13;24.20;99.90
5429;DHT22;2737;52.386;9.980;2023-06-24T09:31:48;24.00;99.90
5429;DHT22;2737;52.386;9.980;2023-06-24T09:34:15;24.00;99.90
5429;DHT22;2737;52.386;9.980;2023-06-24T09:36:43;24.00;99.90
5429;DHT22;2737;52.386;9.980;2023-06-24T09:39:10;24.10;99.90
5429;DHT22;2737;52.386;9.980;2023-06-24T09:41:40;24.30;99.90
5429;DHT22;2737;52.386;9.980;2023-06-24T09:44:09;24.20;99.90
5429;DHT22;2737;52.386;9.980;2023-06-24T09:46:39;24.50;99.90
5429;DHT22;2737;52.386;9.980;2023-06-24T09:49:07;24.60;99.90
5429;DHT22;2737;52.386;9.980;2023-06-24T09:51:37;24.60;99.90
5429;DHT22;2737;52.386;9.980;2023-06-24T09:54:06;24.80;99.90
5429;DHT22;2737;52.386;9.980;2023-06-24T09:56:35;24.70;99.90
5429;DHT22;2737;52.386;9.980;2023-06-24T09:59:03;24.50;99.90
5429;DHT22;2737;52.386;9.980;2023-06-24T10:01:32;24.50;99.90
5429;DHT22;2737;52.386;9.980;2023-06-24T10:04:04;24.80;99.90
5429;DHT22;2737;52.386;9.980;2023-06-24T10:06:32;24.80;99.90
5429;DHT22;2737;52.386;9.980;2023-06-24T10:09:00;24.90;99.90
5429;DHT22;2737;52.386;9.980;2023-06-24T10:11:27;24.80;99.90
5429;DHT22;2737;52.386;9.980;2023-06-24T10:13:54;24.70;99.90
5429;DHT22;2737;52.386;9.980;2023-06-24T10:16:21;24.50;99.90
5429;DHT22;2737;52.386;9.980;2023-06-24T10:18:48;24.60;99.90
5429;DHT22;2737;52.386;9.980;2023-06-24T10:21:17;24.20;99.90
5429;DHT22;2737;52.386;9.980;2023-06-24T10:23:51;24.20;99.90
5429;DHT22;2737;52.386;9.980;2023-06-24T10:26:24;24.50;99.90
5429;DHT22;2737;52.386;9.980;2023-06-24T10:29:10;24.60;99.90
5429;DHT22;2737;52.386;9.980;2023-06-24T10:31:52;24.90;99.90
5429;DHT22;2737;52.386;9.980;2023-06-24T10:34:41;24.90;99.90
5429;DHT22;2737;52.386;9.980;2023-06-24T10:37:14;24.20;99.90
5429;DHT22;2737;52.386;9.980;2023-06-24T10:39:46;23.90;99.90
5429;DHT22;2737;52.386;9.980;2023-06-24T10:42:35;24.20;99.90
5429;DHT22;2737;52.386;9.980;2023-06-24T10:45:19;24.20;99.90
5429;DHT22;2737;52.386;9.980;2023-06-24T10:47:48;24.00;99.90
5429;DHT22;2737;52.386;9.980;2023-06-24T10:50:19;24.10;99.90
5429;DHT22;2737;52.386;9.980;2023-06-24T10:52:50;24.50;99.90
5429;DHT22;2737;52.386;9.980;2023-06-24T10:55:22;24.80;99.90
5429;DHT22;2737;52.386;9.980;2023-06-24T10:57:49;24.80;99.90
5429;DHT22;2737;52.386;9.980;2023-06-24T11:00:16;24.90;99.90
5429;DHT22;2737;52.386;9.980;2023-06-24T11:02:44;25.20;99.90
5429;DHT22;2737;52.386;9.980;2023-06-24T11:05:11;25.20;99.90
5429;DHT22;2737;52.386;9.980;2023-06-24T11:07:39;25.10;99.90
5429;DHT22;2737;52.386;9.980;2023-06-24T11:10:10;25.20;99.90
5429;DHT22;2737;52.386;9.980;2023-06-24T11:12:38;25.00;99.90
5429;DHT22;2737;52.386;9.980;2023-06-24T11:15:07;24.70;99.90
5429;DHT22;2737;52.386;9.980;2023-06-24T11:17:35;24.80;99.90
5429;DHT22;2737;52.386;9.980;2023-06-24T11:20:06;24.90;99.90
5429;DHT22;2737;52.386;9.980;2023-06-24T11:22:33;25.10;99.90
5429;DHT22;2737;52.386;9.980;2023-06-24T11:25:00;25.40;99.90
5429;DHT22;2737;52.386;9.980;2023-06-24T11:27:30;25.50;99.90
5429;DHT22;2737;52.386;9.980;2023-06-24T11:29:58;25.60;99.90
5429;DHT22;2737;52.386;9.980;2023-06-24T11:32:35;25.70;99.90
5429;DHT22;2737;52.386;9.980;2023-06-24T11:35:04;25.80;99.90
5429;DHT22;2737;52.386;9.980;2023-06-24T11:37:32;25.80;99.90
5429;DHT22;2737;52.386;9.980;2023-06-24T11:40:03;25.80;99.90
5429;DHT22;2737;52.386;9.980;2023-06-24T11:42:33;25.70;99.90
5429;DHT22;2737;52.386;9.980;2023-06-24T11:45:03;25.50;99.90
5429;DHT22;2737;52.386;9.980;2023-06-24T11:47:33;25.20;99.90
5429;DHT22;2737;52.386;9.980;2023-06-24T11:50:03;25.30;99.90
5429;DHT22;2737;52.386;9.980;2023-06-24T11:52:41;25.40;99.90
5429;DHT22;2737;52.386;9.980;2023-06-24T11:55:15;25.40;99.90
5429;DHT22;2737;52.386;9.980;2023-06-24T11:57:54;25.80;99.90
5429;DHT22;2737;52.386;9.980;2023-06-24T12:00:23;25.80;99.90
5429;DHT22;2737;52.386;9.980;2023-06-24T12:02:52;26.00;99.90
5429;DHT22;2737;52.386;9.980;2023-06-24T12:05:21;26.20;99.90
5429;DHT22;2737;52.386;9.980;2023-06-24T12:07:54;26.20;99.90
5429;DHT22;2737;52.386;9.980;2023-06-24T12:10:21;26.20;99.90
5429;DHT22;2737;52.386;9.980;2023-06-24T12:12:48;26.30;99.90
5429;DHT22;2737;52.386;9.980;2023-06-24T12:15:17;26.50;99.90
5429;DHT22;2737;52.386;9.980;2023-06-24T12:17:44;26.50;99.90
5429;DHT22;2737;52.386;9.980;2023-06-24T12:20:11;26.30;99.90
5429;DHT22;2737;52.386;9.980;2023-06-24T12:22:39;26.00;99.90
5429;DHT22;2737;52.386;9.980;2023-06-24T12:25:07;26.00;99.90
5429;DHT22;2737;52.386;9.980;2023-06-24T12:27:35;25.80;99.90
5429;DHT22;2737;52.386;9.980;2023-06-24T12:30:02;25.60;99.90
5429;DHT22;2737;52.386;9.980;2023-06-24T12:32:31;25.40;99.90
5429;DHT22;2737;52.386;9.980;2023-06-24T12:34:59;25.20;99.90
5429;DHT22;2737;52.386;9.980;2023-06-24T12:37:29;25.40;99.90
5429;DHT22;2737;52.386;9.980;2023-06-24T12:39:57;25.80;99.90
5429;DHT22;2737;52.386;9.980;2023-06-24T12:42:25;26.00;99.90
5429;DHT22;2737;52.386;9.980;2023-06-24T12:44:52;26.00;99.90
5429;DHT22;2737;52.386;9.980;2023-06-24T12:47:19;25.60;99.90
5429;DHT22;2737;52.386;9.980;2023-06-24T12:49:47;25.30;99.90
5429;DHT22;2737;52.386;9.980;2023-06-24T12:52:14;25.20;99.90
5429;DHT22;2737;52.386;9.980;2023-06-24T12:54:41;25.30;99.90
5429;DHT22;2737;52.386;9.980;2023-06-24T12:57:08;25.60;99.90
5429;DHT22;2737;52.386;9.980;2023-06-24T12:59:35;25.30;99.90
5429;DHT22;2737;52.386;9.980;2023-06-24T13:02:04;25.50;99.90
5429;DHT22;2737;52.386;9.980;2023-06-24T13:04:31;25.70;99.90
5429;DHT22;2737;52.386;9.980;2023-06-24T13:06:59;25.90;99.90
5429;DHT22;2737;52.386;9.980;2023-06-24T13:09:26;25.60;99.90
5429;DHT22;2737;52.386;9.980;2023-06-24T13:11:53;25.60;99.90
5429;DHT22;2737;52.386;9.980;2023-06-24T13:14:20;25.60;99.90
5429;DHT22;2737;52.386;9.980;2023-06-24T13:16:47;25.70;99.90
5429;DHT22;2737;52.386;9.980;2023-06-24T13:19:14;25.50;99.90
5429;DHT22;2737;52.386;9.980;2023-06-24T13:21:43;25.50;99.90
5429;DHT22;2737;52.386;9.980;2023-06-24T13:24:11;25.70;99.90
5429;DHT22;2737;52.386;9.980;2023-06-24T13:26:38;25.80;99.90
5429;DHT22;2737;52.386;9.980;2023-06-24T13:29:05;25.60;99.90
5429;DHT22;2737;52.386;9.980;2023-06-24T13:31:33;25.40;99.90
5429;DHT22;2737;52.386;9.980;2023-06-24T13:34:00;25.10;99.90
5429;DHT22;2737;52.386;9.980;2023-06-24T13:36:31;25.40;99.90
5429;DHT22;2737;52.386;9.980;2023-06-24T13:39:01;25.70;99.90
5429;DHT22;2737;52.386;9.980;2023-06-24T13:41:30;26.00;99.90
5429;DHT22;2737;52.386;9.980;2023-06-24T13:43:58;26.20;99.90
5429;DHT22;2737;52.386;9.980;2023-06-24T13:46:26;26.20;99.90
5429;DHT22;2737;52.386;9.980;2023-06-24T13:48:53;26.20;99.90
5429;DHT22;2737;52.386;9.980;2023-06-24T13:51:20;26.40;99.90
5429;DHT22;2737;52.386;9.980;2023-06-24T13:53:48;26.40;99.90
5429;DHT22;2737;52.386;9.980;2023-06-24T13:56:16;26.40;99.90
5429;DHT22;2737;52.386;9.980;2023-06-24T13:58:44;26.20;99.90
5429;DHT22;2737;52.386;9.980;2023-06-24T14:01:11;26.00;99.90
5429;DHT22;2737;52.386;9.980;2023-06-24T14:03:39;26.00;99.90
5429;DHT22;2737;52.386;9.980;2023-06-24T14:06:07;26.10;99.90
5429;DHT22;2737;52.386;9.980;2023-06-24T14:08:34;26.20;99.90
5429;DHT22;2737;52.386;9.980;2023-06-24T14:11:02;25.70;99.90
5429;DHT22;2737;52.386;9.980;2023-06-24T14:13:29;26.00;99.90
5429;DHT22;2737;52.386;9.980;2023-06-24T14:15:59;26.10;99.90
5429;DHT22;2737;52.386;9.980;2023-06-24T14:18:26;26.20;99.90
5429;DHT22;2737;52.386;9.980;2023-06-24T14:20:53;26.30;99.90
5429;DHT22;2737;52.386;9.980;2023-06-24T14:23:20;26.40;99.90
5429;DHT22;2737;52.386;9.980;2023-06-24T14:25:47;26.40;99.90
5429;DHT22;2737;52.386;9.980;2023-06-24T14:28:14;26.40;99.90
5429;DHT22;2737;52.386;9.980;2023-06-24T14:30:41;26.30;99.90
5429;DHT22;2737;52.386;9.980;2023-06-24T14:33:09;26.20;99.90
5429;DHT22;2737;52.386;9.980;2023-06-24T14:35:36;26.00;99.90
5429;DHT22;2737;52.386;9.980;2023-06-24T14:38:04;26.10;99.90
5429;DHT22;2737;52.386;9.980;2023-06-24T14:40:31;26.00;99.90
5429;DHT22;2737;52.386;9.980;2023-06-24T14:42:58;26.20;99.90
5429;DHT22;2737;52.386;9.980;2023-06-24T14:45:25;26.30;99.90
5429;DHT22;2737;52.386;9.980;2023-06-24T14:47:53;26.40;99.90
5429;DHT22;2737;52.386;9.980;2023-06-24T14:50:21;26.40;99.90
5429;DHT22;2737;52.386;9.980;2023-06-24T14:52:48;26.30;99.90
5429;DHT22;2737;52.386;9.980;2023-06-24T14:55:15;26.30;99.90
5429;DHT22;2737;52.386;9.980;2023-06-24T14:57:42;26.30;99.90
5429;DHT22;2737;52.386;9.980;2023-06-24T15:00:10;26.30;99.90
5429;DHT22;2737;52.386;9.980;2023-06-24T15:02:37;26.30;99.90
5429;DHT22;2737;52.386;9.980;2023-06-24T15:05:05;26.40;99.90
5429;DHT22;2737;52.386;9.980;2023-06-24T15:07:34;26.50;99.90
5429;DHT22;2737;52.386;9.980;2023-06-24T15:10:04;26.60;99.90
5429;DHT22;2737;52.386;9.980;2023-06-24T15:12:31;26.50;99.90
5429;DHT22;2737;52.386;9.980;2023-06-24T15:15:00;26.50;99.90
5429;DHT22;2737;52.386;9.980;2023-06-24T15:17:27;26.50;99.90
5429;DHT22;2737;52.386;9.980;2023-06-24T15:19:55;26.50;99.90
5429;DHT22;2737;52.386;9.980;2023-06-24T15:22:22;26.60;99.90
5429;DHT22;2737;52.386;9.980;2023-06-24T15:24:50;26.50;99.90
5429;DHT22;2737;52.386;9.980;2023-06-24T15:27:17;26.60;99.90
5429;DHT22;2737;52.386;9.980;2023-06-24T15:29:44;26.50;99.90
5429;DHT22;2737;52.386;9.980;2023-06-24T15:32:11;26.30;99.90
5429;DHT22;2737;52.386;9.980;2023-06-24T15:34:38;26.30;99.90
5429;DHT22;2737;52.386;9.980;2023-06-24T15:37:06;26.30;99.90
5429;DHT22;2737;52.386;9.980;2023-06-24T15:39:33;26.10;99.90
5429;DHT22;2737;52.386;9.980;2023-06-24T15:42:01;26.30;99.90
5429;DHT22;2737;52.386;9.980;2023-06-24T15:44:28;26.50;99.90
5429;DHT22;2737;52.386;9.980;2023-06-24T15:46:56;26.50;99.90
5429;DHT22;2737;52.386;9.980;2023-06-24T15:49:23;26.40;99.90
5429;DHT22;2737;52.386;9.980;2023-06-24T15:51:50;26.50;99.90
5429;DHT22;2737;52.386;9.980;2023-06-24T15:54:17;26.50;99.90
5429;DHT22;2737;52.386;9.980;2023-06-24T15:56:44;26.40;99.90
5429;DHT22;2737;52.386;9.980;2023-06-24T15:59:12;26.40;99.90
5429;DHT22;2737;52.386;9.980;2023-06-24T16:01:39;26.30;99.90
5429;DHT22;2737;52.386;9.980;2023-06-24T16:04:07;26.40;99.90
5429;DHT22;2737;52.386;9.980;2023-06-24T16:06:34;26.20;99.90
5429;DHT22;2737;52.386;9.980;2023-06-24T16:09:01;26.30;99.90
5429;DHT22;2737;52.386;9.980;2023-06-24T16:11:29;26.30;99.90